Zenith Leader — 2ACU6 — position and weather

sailwx.info

Track history (hours):
 
Tides and Currents Weather Stations Pressure Air Temp Water Temp Dewpoint Dewpoint Depression Visibility Wind Speed Wind Dir Waves Ship Positions

Zenith Leader

Last reported at 2014-Nov-11 23:26 UTC. Time now 2014-Nov-27 14:27 UTC.
Position S 24°11' E 154°18'.
Warning: this ship's position is 15 days out of date.

Length 199 m; draft 7.8 m.

Type: Cargo ship. MMSI: 235058697.

Date/timePositionNaut miles runAvg speedWind from/ knotsBaromVisibWave heightAir tempDewpointWater temp
2014-Nov-11 23:26S 24°11' E 154°18'1515.5
2014-Nov-11 22:29S 24°26' E 154°16'5015.5
2014-Nov-11 19:17S 25°15' E 154°10'1114.8
2014-Nov-11 18:31S 25°26' E 154°09'1414.4
2014-Nov-11 17:33S 25°40' E 154°07'1414.1
2014-Nov-11 16:32S 25°54' E 154°06'1413.7
2014-Nov-11 15:33S 26°08' E 154°04'1312.6
2014-Nov-11 14:32S 26°20' E 154°03'1313.1
2014-Nov-11 13:32S 26°34' E 154°02'1414.1
2014-Nov-11 12:33S 26°47' E 153°59'1514.6
2014-Nov-11 11:33S 27°02' E 153°58'1413.9
2014-Nov-11 10:33S 27°16' E 153°56'1313.1
2014-Nov-11 09:33S 27°29' E 153°54'1313.1
2014-Nov-11 08:33S 27°42' E 153°53'1313.0
2014-Nov-11 07:33S 27°55' E 153°51'1313.2
2014-Nov-11 06:33S 28°08' E 153°49'23914.6
2014-Nov-10 14:09S 32°02' E 152°52'2415.1
2014-Nov-10 12:33S 32°24' E 152°42'1515.4
2014-Nov-10 11:34S 32°38' E 152°35'1615.9
2014-Nov-10 10:34S 32°53' E 152°28'1616.3
2014-Nov-10 09:33S 33°08' E 152°21'25415.9
2014-Nov-09 17:33S 37°05' E 150°27'1616.0
2014-Nov-09 16:33S 37°20' E 150°20'1616.0
2014-Nov-09 15:33S 37°35' E 150°13'1515.2
2014-Nov-09 14:33S 37°46' E 150°00'1616.1
2014-Nov-09 13:34S 37°56' E 149°44'1616.0
2014-Nov-09 12:34S 38°05' E 149°27'1615.8
2014-Nov-09 11:33S 38°15' E 149°12'1615.7
2014-Nov-09 10:33S 38°24' E 148°55'1615.7
2014-Nov-09 09:34S 38°33' E 148°39'1616.1
2014-Nov-09 08:33S 38°43' E 148°23'1616.4
2014-Nov-09 07:34S 38°50' E 148°04'1717.1
2014-Nov-09 06:33S 38°56' E 147°43'1717.2
2014-Nov-09 05:33S 39°02' E 147°23'1716.7
2014-Nov-09 04:33S 39°08' E 147°03'1616.1
2014-Nov-09 03:33S 39°15' E 146°43'1515.5
2014-Nov-09 02:34S 39°17' E 146°24'1615.7
2014-Nov-09 01:33S 39°16' E 146°03'1615.8
2014-Nov-09 00:33S 39°13' E 145°43'1915.9
2014-Nov-08 23:24S 39°10' E 145°20'1516.0
2014-Nov-08 22:29S 39°08' E 145°01'1615.9
2014-Nov-08 21:30S 39°05' E 144°41'1515.8
2014-Nov-08 20:32S 39°03' E 144°22'7615.3
2014-Nov-08 15:33S 38°47' E 142°46'1615.7
2014-Nov-08 14:33S 38°44' E 142°26'1615.9
2014-Nov-08 13:33S 38°39' E 142°07'1615.8
2014-Nov-08 12:31S 38°35' E 141°46'23615.8
2014-Nov-07 21:33S 35°50' E 138°14'1818.2
2014-Nov-07 20:32S 35°35' E 138°01'43 2.7
2014-Nov-07 04:26S 34°54' E 138°18'7 6.9
2014-Nov-07 03:22S 35°01' E 138°15'3510.7
2014-Nov-07 00:08S 35°34' E 138°01'2214.3
2014-Nov-06 22:33S 35°53' E 138°16'1616.1
2014-Nov-06 21:33S 36°05' E 138°28'9916.5
2014-Nov-06 15:33S 37°24' E 139°44'1916.8
2014-Nov-06 14:24S 37°39' E 139°59'1916.3
2014-Nov-06 13:14S 37°54' E 140°14'4316.0
2014-Nov-06 10:32S 38°18' E 140°59'1816.1
2014-Nov-06 09:25S 38°28' E 141°19'1415.7
2014-Nov-06 08:30S 38°32' E 141°36'1515.8
2014-Nov-06 07:33S 38°36' E 141°55'1715.8
2014-Nov-06 06:30S 38°40' E 142°15'1515.7
2014-Nov-06 05:33S 38°44' E 142°34'9114.8
2014-Nov-05 23:27S 38°25' E 144°27'16 0.7
2014-Nov-04 23:33S 38°18' E 144°45'6611.0
2014-Nov-04 17:34S 39°01' E 145°49'1514.7
2014-Nov-04 16:34S 39°09' E 146°05'1414.0
2014-Nov-04 15:34S 39°12' E 146°23'1514.6
2014-Nov-04 14:33S 39°07' E 146°41'1514.9
2014-Nov-04 13:34S 39°02' E 146°59'1615.5
2014-Nov-04 12:33S 38°57' E 147°18'1615.9
2014-Nov-04 11:33S 38°52' E 147°37'1616.3
2014-Nov-04 10:34S 38°47' E 147°57'1716.9
2014-Nov-04 09:34S 38°40' E 148°17'1616.4
2014-Nov-04 08:34S 38°31' E 148°34'1615.8
2014-Nov-04 07:34S 38°22' E 148°50'1616.0
2014-Nov-04 06:34S 38°12' E 149°07'1716.6
2014-Nov-04 05:33S 38°03' E 149°24'1817.5
2014-Nov-04 04:33S 37°53' E 149°42'1717.3
2014-Nov-04 03:33S 37°43' E 150°00'1616.3
2014-Nov-04 02:33S 37°29' E 150°12'1717.0
2014-Nov-04 01:33S 37°13' E 150°18'257 6.4
2014-Nov-02 09:34S 33°13' E 152°09'1616.0
2014-Nov-02 08:34S 32°60' E 152°19'1615.8
2014-Nov-02 07:33S 32°46' E 152°29'1615.7
2014-Nov-02 06:34S 32°32' E 152°37'1715.1
2014-Nov-02 05:26S 32°16' E 152°44'1314.8
2014-Nov-02 04:34S 32°04' E 152°50'  
Track history (hours):
 
Tides and Currents Weather Stations Pressure Air Temp Water Temp Dewpoint Dewpoint Depression Visibility Wind Speed Wind Dir Waves Ship Positions

Zenith Leader

Last reported at 2014-Nov-11 23:26 UTC. Time now 2014-Nov-27 14:27 UTC.
Position S 24°11' E 154°18'.
Warning: this ship's position is 15 days out of date.

Length 199 m; draft 7.8 m.

Type: Cargo ship. MMSI: 235058697.

Date/timePositionNaut miles runAvg speedWind from/ knotsBaromVisibWave heightAir tempDewpointWater temp
2014-Nov-11 23:26S 24°11' E 154°18'1515.5
2014-Nov-11 22:29S 24°26' E 154°16'5015.5
2014-Nov-11 19:17S 25°15' E 154°10'1114.8
2014-Nov-11 18:31S 25°26' E 154°09'1414.4
2014-Nov-11 17:33S 25°40' E 154°07'1414.1
2014-Nov-11 16:32S 25°54' E 154°06'1413.7
2014-Nov-11 15:33S 26°08' E 154°04'1312.6
2014-Nov-11 14:32S 26°20' E 154°03'1313.1
2014-Nov-11 13:32S 26°34' E 154°02'1414.1
2014-Nov-11 12:33S 26°47' E 153°59'1514.6
2014-Nov-11 11:33S 27°02' E 153°58'1413.9
2014-Nov-11 10:33S 27°16' E 153°56'1313.1
2014-Nov-11 09:33S 27°29' E 153°54'1313.1
2014-Nov-11 08:33S 27°42' E 153°53'1313.0
2014-Nov-11 07:33S 27°55' E 153°51'1313.2
2014-Nov-11 06:33S 28°08' E 153°49'23914.6
2014-Nov-10 14:09S 32°02' E 152°52'2415.1
2014-Nov-10 12:33S 32°24' E 152°42'1515.4
2014-Nov-10 11:34S 32°38' E 152°35'1615.9
2014-Nov-10 10:34S 32°53' E 152°28'1616.3
2014-Nov-10 09:33S 33°08' E 152°21'25415.9
2014-Nov-09 17:33S 37°05' E 150°27'1616.0
2014-Nov-09 16:33S 37°20' E 150°20'1616.0
2014-Nov-09 15:33S 37°35' E 150°13'1515.2
2014-Nov-09 14:33S 37°46' E 150°00'1616.1
2014-Nov-09 13:34S 37°56' E 149°44'1616.0
2014-Nov-09 12:34S 38°05' E 149°27'1615.8
2014-Nov-09 11:33S 38°15' E 149°12'1615.7
2014-Nov-09 10:33S 38°24' E 148°55'1615.7
2014-Nov-09 09:34S 38°33' E 148°39'1616.1
2014-Nov-09 08:33S 38°43' E 148°23'1616.4
2014-Nov-09 07:34S 38°50' E 148°04'1717.1
2014-Nov-09 06:33S 38°56' E 147°43'1717.2
2014-Nov-09 05:33S 39°02' E 147°23'1716.7
2014-Nov-09 04:33S 39°08' E 147°03'1616.1
2014-Nov-09 03:33S 39°15' E 146°43'1515.5
2014-Nov-09 02:34S 39°17' E 146°24'1615.7
2014-Nov-09 01:33S 39°16' E 146°03'1615.8
2014-Nov-09 00:33S 39°13' E 145°43'1915.9
2014-Nov-08 23:24S 39°10' E 145°20'1516.0
2014-Nov-08 22:29S 39°08' E 145°01'1615.9
2014-Nov-08 21:30S 39°05' E 144°41'1515.8
2014-Nov-08 20:32S 39°03' E 144°22'7615.3
2014-Nov-08 15:33S 38°47' E 142°46'1615.7
2014-Nov-08 14:33S 38°44' E 142°26'1615.9
2014-Nov-08 13:33S 38°39' E 142°07'1615.8
2014-Nov-08 12:31S 38°35' E 141°46'23615.8
2014-Nov-07 21:33S 35°50' E 138°14'1818.2
2014-Nov-07 20:32S 35°35' E 138°01'43 2.7
2014-Nov-07 04:26S 34°54' E 138°18'7 6.9
2014-Nov-07 03:22S 35°01' E 138°15'3510.7
2014-Nov-07 00:08S 35°34' E 138°01'2214.3
2014-Nov-06 22:33S 35°53' E 138°16'1616.1
2014-Nov-06 21:33S 36°05' E 138°28'9916.5
2014-Nov-06 15:33S 37°24' E 139°44'1916.8
2014-Nov-06 14:24S 37°39' E 139°59'1916.3
2014-Nov-06 13:14S 37°54' E 140°14'4316.0
2014-Nov-06 10:32S 38°18' E 140°59'1816.1
2014-Nov-06 09:25S 38°28' E 141°19'1415.7
2014-Nov-06 08:30S 38°32' E 141°36'1515.8
2014-Nov-06 07:33S 38°36' E 141°55'1715.8
2014-Nov-06 06:30S 38°40' E 142°15'1515.7
2014-Nov-06 05:33S 38°44' E 142°34'9114.8
2014-Nov-05 23:27S 38°25' E 144°27'16 0.7
2014-Nov-04 23:33S 38°18' E 144°45'6611.0
2014-Nov-04 17:34S 39°01' E 145°49'1514.7
2014-Nov-04 16:34S 39°09' E 146°05'1414.0
2014-Nov-04 15:34S 39°12' E 146°23'1514.6
2014-Nov-04 14:33S 39°07' E 146°41'1514.9
2014-Nov-04 13:34S 39°02' E 146°59'1615.5
2014-Nov-04 12:33S 38°57' E 147°18'1615.9
2014-Nov-04 11:33S 38°52' E 147°37'1616.3
2014-Nov-04 10:34S 38°47' E 147°57'1716.9
2014-Nov-04 09:34S 38°40' E 148°17'1616.4
2014-Nov-04 08:34S 38°31' E 148°34'1615.8
2014-Nov-04 07:34S 38°22' E 148°50'1616.0
2014-Nov-04 06:34S 38°12' E 149°07'1716.6
2014-Nov-04 05:33S 38°03' E 149°24'1817.5
2014-Nov-04 04:33S 37°53' E 149°42'1717.3
2014-Nov-04 03:33S 37°43' E 150°00'1616.3
2014-Nov-04 02:33S 37°29' E 150°12'1717.0
2014-Nov-04 01:33S 37°13' E 150°18'257 6.4
2014-Nov-02 09:34S 33°13' E 152°09'1616.0
2014-Nov-02 08:34S 32°60' E 152°19'1615.8
2014-Nov-02 07:33S 32°46' E 152°29'1615.7
2014-Nov-02 06:34S 32°32' E 152°37'1715.1
2014-Nov-02 05:26S 32°16' E 152°44'1314.8
2014-Nov-02 04:34S 32°04' E 152°50'  

Dump ship's entire track history